createdAt,value
2018-12-03T00:01:31.411Z,99437.47
2018-12-03T00:04:30.875Z,99448.05
2018-12-03T00:06:59.491Z,99442.74
2018-12-03T00:09:28.040Z,99455.13
2018-12-03T00:11:56.927Z,99450.77
2018-12-03T00:14:25.482Z,99452.68
2018-12-03T00:16:54.150Z,99441.30
2018-12-03T00:19:22.994Z,99437.37
2018-12-03T00:21:51.551Z,99443.46
2018-12-03T00:24:20.743Z,99446.34
2018-12-03T00:26:49.265Z,99449.55
2018-12-03T00:29:18.042Z,99452.81
2018-12-03T00:31:46.566Z,99448.88
2018-12-03T00:34:15.614Z,99445.75
2018-12-03T00:36:44.174Z,99451.73
2018-12-03T00:39:13.135Z,99450.64
2018-12-03T00:41:41.662Z,99455.09
2018-12-03T00:44:10.217Z,99456.41
2018-12-03T00:46:38.744Z,99450.98
2018-12-03T00:49:07.274Z,99440.52
2018-12-03T00:51:35.866Z,99440.61
2018-12-03T00:54:05.933Z,99457.38
2018-12-03T00:56:34.808Z,99494.14
2018-12-03T00:59:03.356Z,99532.09
2018-12-03T01:01:34.644Z,99545.26
2018-12-03T01:04:04.384Z,99542.75
2018-12-03T01:06:32.949Z,99541.94
2018-12-03T01:09:01.452Z,99537.86
2018-12-03T01:11:30.209Z,99535.83
2018-12-03T01:13:58.700Z,99531.28
2018-12-03T01:16:27.195Z,99533.52
2018-12-03T01:18:55.683Z,99534.52
2018-12-03T01:21:24.470Z,99547.34
2018-12-03T01:23:52.941Z,99549.39
2018-12-03T01:26:21.486Z,99535.02
2018-12-03T01:28:50.101Z,99540.12
2018-12-03T01:31:18.947Z,99526.35
2018-12-03T01:33:47.525Z,99531.10
2018-12-03T01:36:16.637Z,99524.17
2018-12-03T01:38:45.121Z,99528.20
2018-12-03T01:41:13.925Z,99521.28
2018-12-03T01:43:42.459Z,99525.62
2018-12-03T01:46:10.970Z,99521.67
2018-12-03T01:48:39.537Z,99519.77
2018-12-03T01:51:08.142Z,99512.92
2018-12-03T01:53:36.695Z,99514.24
2018-12-03T01:56:06.192Z,99513.68
2018-12-03T01:58:35.018Z,99511.61
2018-12-03T02:01:03.673Z,99502.77
2018-12-03T02:03:32.249Z,99504.30
2018-12-03T02:06:01.034Z,99501.07
2018-12-03T02:08:29.519Z,99495.58
2018-12-03T02:10:58.042Z,99497.84
2018-12-03T02:13:26.578Z,99494.48
2018-12-03T02:15:55.125Z,99495.20
2018-12-03T02:18:23.643Z,99495.33
2018-12-03T02:20:52.165Z,99496.77
2018-12-03T02:23:20.737Z,99485.52
2018-12-03T02:25:49.323Z,99495.45
2018-12-03T02:28:18.182Z,99499.28
2018-12-03T02:30:46.768Z,99502.26
2018-12-03T02:33:15.316Z,99498.69
2018-12-03T02:35:44.128Z,99497.23
2018-12-03T02:38:12.759Z,99501.19
2018-12-03T02:40:41.467Z,99497.12
2018-12-03T02:43:09.986Z,99495.33
2018-12-03T02:45:38.493Z,99491.76
2018-12-03T02:48:07.178Z,99488.27
2018-12-03T02:50:35.752Z,99493.16
2018-12-03T02:53:04.284Z,99487.42
2018-12-03T02:55:32.895Z,99491.59
2018-12-03T02:58:02.295Z,99481.78
2018-12-03T03:00:30.902Z,99474.59
2018-12-03T03:02:59.501Z,99475.79
2018-12-03T03:05:28.293Z,99475.66
2018-12-03T03:07:56.851Z,99472.90
2018-12-03T03:10:25.445Z,99475.20
2018-12-03T03:12:54.245Z,99473.16
2018-12-03T03:15:22.743Z,99475.66
2018-12-03T03:17:51.225Z,99477.70
2018-12-03T03:20:20.001Z,99479.65
2018-12-03T03:22:48.517Z,99487.30
2018-12-03T03:25:17.007Z,99485.73
2018-12-03T03:27:45.473Z,99484.54
2018-12-03T03:30:16.086Z,99477.11
2018-12-03T03:32:44.700Z,99480.03
2018-12-03T03:35:14.086Z,99480.25
2018-12-03T03:37:42.618Z,99477.11
2018-12-03T03:40:14.656Z,99472.22
2018-12-03T03:42:44.278Z,99485.05
2018-12-03T03:45:15.281Z,99492.44
2018-12-03T03:47:43.817Z,99489.00
2018-12-03T03:50:12.366Z,99482.75
2018-12-03T03:52:40.928Z,99478.36
2018-12-03T03:55:10.371Z,99476.20
2018-12-03T03:57:38.989Z,99474.29
2018-12-03T04:00:10.350Z,99468.80
2018-12-03T04:02:39.231Z,99474.16
2018-12-03T04:05:11.804Z,99472.47
2018-12-03T04:07:40.868Z,99471.97
2018-12-03T04:10:11.407Z,99471.03
2018-12-03T04:12:40.862Z,99477.17
2018-12-03T04:15:11.309Z,99465.38
2018-12-03T04:17:39.929Z,99469.23
2018-12-03T04:20:12.581Z,99467.80
2018-12-03T04:22:41.273Z,99487.08
2018-12-03T04:27:53.710Z,99476.08
2018-12-03T04:30:22.953Z,99476.08
2018-12-03T04:32:52.501Z,99468.64
2018-12-03T04:35:21.106Z,99472.75
2018-12-03T04:37:49.666Z,99472.97
2018-12-03T04:40:18.513Z,99502.17
2018-12-03T04:42:47.039Z,99511.42
2018-12-03T04:45:17.666Z,99532.12
2018-12-03T04:47:46.894Z,99544.20
2018-12-03T04:50:16.420Z,99553.03
2018-12-03T04:52:45.056Z,99532.47
2018-12-03T04:55:15.221Z,99513.52
2018-12-03T04:57:43.863Z,99487.98
2018-12-03T05:00:16.271Z,99479.23
2018-12-03T05:02:45.742Z,99463.55
2018-12-03T05:05:14.463Z,99479.23
2018-12-03T05:07:43.146Z,99475.41
2018-12-03T05:10:16.652Z,99478.88
2018-12-03T05:12:46.691Z,99475.87
2018-12-03T05:15:15.343Z,99495.41
2018-12-03T05:17:44.231Z,99513.13
2018-12-03T05:20:14.943Z,99522.09
2018-12-03T05:22:44.192Z,99516.44
2018-12-03T05:25:12.515Z,99513.80
2018-12-03T05:27:41.182Z,99515.38
2018-12-03T05:30:10.928Z,99513.00
2018-12-03T05:32:39.869Z,99509.77
2018-12-03T05:35:09.949Z,99514.62
2018-12-03T05:37:38.495Z,99500.34
2018-12-03T05:40:11.318Z,99520.73
2018-12-03T05:42:39.898Z,99519.38
2018-12-03T05:45:09.332Z,99525.88
2018-12-03T05:47:37.864Z,99533.45
2018-12-03T05:50:41.263Z,99531.16
2018-12-03T05:53:09.802Z,99539.47
2018-12-03T05:55:38.638Z,99539.44
2018-12-03T05:58:07.236Z,99546.84
2018-12-03T06:00:35.893Z,99544.66
2018-12-03T06:03:04.515Z,99548.02
2018-12-03T06:05:33.206Z,99546.58
2018-12-03T06:08:02.382Z,99538.92
2018-12-03T06:10:30.908Z,99537.34
2018-12-03T06:12:59.823Z,99541.17
2018-12-03T06:15:28.329Z,99548.27
2018-12-03T06:17:59.005Z,99549.47
2018-12-03T06:20:27.645Z,99532.94
2018-12-03T06:22:56.289Z,99532.12
2018-12-03T06:25:26.680Z,99520.98
2018-12-03T06:27:55.250Z,99523.84
2018-12-03T06:30:24.919Z,99526.61
2018-12-03T06:32:53.998Z,99526.17
2018-12-03T06:35:22.679Z,99523.28
2018-12-03T06:37:51.643Z,99533.23
2018-12-03T06:40:23.525Z,99525.20
2018-12-03T06:42:52.367Z,99533.20
2018-12-03T06:45:21.817Z,99535.70
2018-12-03T06:48:03.630Z,99538.72
2018-12-03T06:50:32.181Z,99548.36
2018-12-03T06:53:01.646Z,99546.11
2018-12-03T06:55:30.378Z,99547.05
2018-12-03T06:57:59.093Z,99545.26
2018-12-03T07:00:27.965Z,99539.52
2018-12-03T07:02:56.532Z,99534.00
2018-12-03T07:05:25.679Z,99530.64
2018-12-03T07:07:56.015Z,99526.94
2018-12-03T07:10:25.070Z,99536.17
2018-12-03T07:12:56.261Z,99535.23
2018-12-03T07:15:25.165Z,99543.38
2018-12-03T07:17:55.453Z,99548.48
2018-12-03T07:20:24.135Z,99553.92
2018-12-03T07:22:53.114Z,99557.63
2018-12-03T07:25:21.663Z,99561.95
2018-12-03T07:27:50.582Z,99560.72
2018-12-03T07:30:21.281Z,99560.31
2018-12-03T07:32:50.477Z,99557.63
2018-12-03T07:35:19.664Z,99559.58
2018-12-03T07:37:49.145Z,99561.50
2018-12-03T07:40:17.701Z,99557.33
2018-12-03T07:42:46.285Z,99557.11
2018-12-03T07:45:22.805Z,99564.30
2018-12-03T07:47:51.426Z,99553.38
2018-12-03T07:50:21.943Z,99552.44
2018-12-03T07:52:50.508Z,99551.24
2018-12-03T07:55:21.107Z,99558.77
2018-12-03T07:57:53.722Z,99563.23
2018-12-03T08:00:26.228Z,99556.89
2018-12-03T08:02:54.849Z,99558.93
2018-12-03T08:05:23.702Z,99546.00
2018-12-03T08:07:52.272Z,99562.19
2018-12-03T08:10:20.857Z,99558.81
2018-12-03T08:12:50.330Z,99569.60
2018-12-03T08:15:19.841Z,99570.77
2018-12-03T08:17:52.122Z,99579.77
2018-12-03T08:20:26.686Z,99567.78
2018-12-03T08:22:59.406Z,99574.37
2018-12-03T08:25:27.953Z,99578.89
2018-12-03T08:27:56.892Z,99589.09
2018-12-03T08:30:25.542Z,99591.04
2018-12-03T08:32:54.116Z,99593.33
2018-12-03T08:35:22.948Z,99582.16
2018-12-03T08:37:51.502Z,99578.92
2018-12-03T08:40:20.658Z,99576.06
2018-12-03T08:42:52.734Z,99583.72
2018-12-03T08:45:22.255Z,99588.41
2018-12-03T08:47:51.242Z,99584.83
2018-12-03T08:50:27.787Z,99577.51
2018-12-03T08:52:57.373Z,99582.66
2018-12-03T08:55:26.260Z,99574.52
2018-12-03T08:57:54.842Z,99557.73
2018-12-03T09:00:29.681Z,99558.20
2018-12-03T09:03:02.603Z,99554.62
2018-12-03T09:05:32.769Z,99554.25
2018-12-03T09:08:01.392Z,99558.20
2018-12-03T09:10:30.067Z,99560.72
2018-12-03T09:13:00.528Z,99567.78
2018-12-03T09:15:29.361Z,99578.89
2018-12-03T09:17:57.858Z,99579.39
2018-12-03T09:20:26.381Z,99585.55
2018-12-03T09:22:55.185Z,99608.86
2018-12-03T09:25:24.705Z,99599.20
2018-12-03T09:27:53.238Z,99599.29
2018-12-03T09:30:27.519Z,99590.28
2018-12-03T09:32:50.892Z,99594.35
2018-12-03T09:35:19.484Z,99596.41
2018-12-03T09:37:48.312Z,99592.23
2018-12-03T09:40:19.493Z,99591.13
2018-12-03T09:42:48.023Z,99605.70
2018-12-03T09:45:17.847Z,99609.10
2018-12-03T09:47:46.878Z,99606.09
2018-12-03T09:50:18.561Z,99605.70
2018-12-03T09:52:47.461Z,99605.70
2018-12-03T09:55:18.695Z,99596.48
2018-12-03T09:57:56.140Z,99602.05
2018-12-03T10:00:25.040Z,99599.71
2018-12-03T10:02:53.821Z,99595.80
2018-12-03T10:05:22.892Z,99595.30
2018-12-03T10:07:52.755Z,99611.50
2018-12-03T10:10:21.372Z,99608.98
2018-12-03T10:12:50.122Z,99594.99
2018-12-03T10:15:19.352Z,99571.70
2018-12-03T10:17:50.668Z,99560.69
2018-12-03T10:20:19.198Z,99559.58
2018-12-03T10:22:49.615Z,99560.78
2018-12-03T10:25:18.270Z,99571.83
2018-12-03T10:27:46.856Z,99573.48
2018-12-03T10:30:18.941Z,99553.88
2018-12-03T10:32:49.685Z,99558.65
2018-12-03T10:35:18.539Z,99545.00
2018-12-03T10:37:47.713Z,99526.45
2018-12-03T10:40:20.783Z,99517.58
2018-12-03T10:42:49.826Z,99531.25
2018-12-03T10:45:26.177Z,99519.63
2018-12-03T10:47:52.308Z,99520.81
2018-12-03T10:50:22.337Z,99528.50
2018-12-03T10:52:49.894Z,99530.04
2018-12-03T10:55:18.473Z,99527.53
2018-12-03T10:57:47.121Z,99515.78
2018-12-03T11:00:22.049Z,99512.34
2018-12-03T11:02:57.299Z,99512.09
2018-12-03T11:05:32.683Z,99517.72
2018-12-03T11:08:01.326Z,99531.50
2018-12-03T11:10:38.443Z,99525.52
2018-12-03T11:13:07.390Z,99519.89
2018-12-03T11:15:36.041Z,99519.05
2018-12-03T11:18:06.582Z,99526.13
2018-12-03T11:20:36.471Z,99530.31
2018-12-03T11:23:05.616Z,99510.75
2018-12-03T11:25:36.056Z,99523.00
2018-12-03T11:28:07.507Z,99517.11
2018-12-03T11:30:36.403Z,99521.44
2018-12-03T11:33:05.040Z,99518.67
2018-12-03T11:35:33.995Z,99513.52
2018-12-03T11:38:10.499Z,99519.41
2018-12-03T11:40:43.005Z,99517.50
2018-12-03T11:43:12.036Z,99521.45
2018-12-03T11:45:40.521Z,99521.80
2018-12-03T11:48:09.162Z,99520.00
2018-12-03T11:50:38.088Z,99516.67
2018-12-03T11:53:06.630Z,99519.30
2018-12-03T11:55:35.183Z,99522.19
2018-12-03T11:58:04.805Z,99515.94
2018-12-03T12:00:33.369Z,99520.27
2018-12-03T12:03:01.952Z,99521.23
2018-12-03T12:05:31.799Z,99511.03
2018-12-03T12:08:00.504Z,99516.41
2018-12-03T12:10:29.035Z,99511.00
2018-12-03T12:12:58.949Z,99508.34
2018-12-03T12:15:27.493Z,99506.19
2018-12-03T12:17:56.035Z,99505.95
2018-12-03T12:20:25.153Z,99508.36
2018-12-03T12:22:53.723Z,99499.23
2018-12-03T12:25:22.686Z,99490.61
2018-12-03T12:27:54.131Z,99486.66
2018-12-03T12:30:22.702Z,99482.22
2018-12-03T12:32:51.256Z,99474.42
2018-12-03T12:35:20.102Z,99471.42
2018-12-03T12:37:48.630Z,99476.10
2018-12-03T12:40:17.202Z,99469.41
2018-12-03T12:42:46.064Z,99456.95
2018-12-03T12:45:18.462Z,99458.63
2018-12-03T12:47:47.176Z,99453.58
2018-12-03T12:50:45.882Z,99437.41
2018-12-03T12:53:14.450Z,99432.61
2018-12-03T12:55:43.107Z,99423.99
2018-12-03T12:58:11.929Z,99407.09
2018-12-03T13:00:40.549Z,99402.41
2018-12-03T13:03:09.475Z,99404.80
2018-12-03T13:05:38.698Z,99391.02
2018-12-03T13:08:07.514Z,99380.23
2018-12-03T13:10:36.390Z,99370.88
2018-12-03T13:13:05.802Z,99377.98
2018-12-03T13:15:34.615Z,99371.72
2018-12-03T13:18:04.390Z,99395.20
2018-12-03T13:20:33.678Z,99441.13
2018-12-03T13:23:02.519Z,99455.62
2018-12-03T13:25:31.368Z,99450.24
2018-12-03T13:28:00.547Z,99475.05
2018-12-03T13:30:29.407Z,99463.04
2018-12-03T13:32:58.238Z,99463.18
2018-12-03T13:36:29.704Z,99464.95
2018-12-03T13:38:58.587Z,99468.55
2018-12-03T13:41:27.690Z,99458.58
2018-12-03T13:43:56.446Z,99462.06
2018-12-03T13:46:26.139Z,99451.86
2018-12-03T13:48:54.936Z,99435.47
2018-12-03T13:51:23.701Z,99432.33
2018-12-03T13:53:52.907Z,99439.04
2018-12-03T13:56:21.722Z,99434.84
2018-12-03T13:58:50.541Z,99443.46
2018-12-03T14:01:19.874Z,99443.50
2018-12-03T14:03:48.708Z,99423.73
2018-12-03T14:06:24.225Z,99422.06
2018-12-03T14:09:05.299Z,99427.66
2018-12-03T14:11:55.956Z,99423.84
2018-12-03T14:16:42.616Z,99421.70
2018-12-03T14:19:15.256Z,99417.17
2018-12-03T14:21:50.894Z,99419.55
2018-12-03T14:24:20.517Z,99415.73
2018-12-03T14:26:49.313Z,99414.17
2018-12-03T14:29:18.142Z,99404.09
2018-12-03T14:31:47.015Z,99398.95
2018-12-03T14:34:23.956Z,99380.37
2018-12-03T14:36:52.805Z,99389.50
2018-12-03T14:39:21.980Z,99391.66
2018-12-03T14:41:50.793Z,99395.84
2018-12-03T14:44:19.660Z,99411.16
2018-12-03T14:46:48.815Z,99423.88
2018-12-03T14:49:17.659Z,99425.30
2018-12-03T14:51:46.494Z,99416.08
2018-12-03T14:54:16.003Z,99399.43
2018-12-03T14:56:44.839Z,99393.80
2018-12-03T14:59:13.755Z,99388.64
2018-12-03T15:01:43.018Z,99382.17
2018-12-03T15:04:13.143Z,99375.83
2018-12-03T15:06:42.915Z,99371.16
2018-12-03T15:09:12.375Z,99373.07
2018-12-03T15:11:41.265Z,99378.34
2018-12-03T15:14:10.115Z,99387.53
2018-12-03T15:16:39.927Z,99388.84
2018-12-03T15:19:11.657Z,99388.25
2018-12-03T15:21:40.915Z,99389.31
2018-12-03T15:24:13.409Z,99386.81
2018-12-03T15:26:41.180Z,99390.13
2018-12-03T15:29:10.146Z,99393.83
2018-12-03T15:31:39.350Z,99384.14
2018-12-03T15:34:08.242Z,99370.39
2018-12-03T15:36:37.196Z,99372.05
2018-12-03T15:39:09.247Z,99383.77
2018-12-03T15:41:38.199Z,99368.69
2018-12-03T15:44:07.137Z,99361.05
2018-12-03T15:46:36.013Z,99346.06
2018-12-03T15:49:05.009Z,99321.75
2018-12-03T15:51:34.132Z,99323.73
2018-12-03T15:54:03.944Z,99334.12
2018-12-03T15:56:32.766Z,99323.09
2018-12-03T15:59:01.980Z,99349.33
2018-12-03T16:01:30.789Z,99325.63
2018-12-03T16:03:59.660Z,99325.29
2018-12-03T16:06:28.819Z,99309.12
2018-12-03T16:08:57.707Z,99294.77
2018-12-03T16:11:26.571Z,99300.52
2018-12-03T16:13:55.839Z,99307.58
2018-12-03T16:16:24.704Z,99309.62
2018-12-03T16:18:53.551Z,99305.17
2018-12-03T16:21:22.712Z,99291.66
2018-12-03T16:23:51.542Z,99284.73
2018-12-03T16:26:20.399Z,99276.95
2018-12-03T16:28:49.743Z,99274.66
2018-12-03T16:31:19.402Z,99273.58
2018-12-03T16:33:48.259Z,99273.59
2018-12-03T16:36:17.678Z,99275.63
2018-12-03T16:38:46.567Z,99279.56
2018-12-03T16:41:15.404Z,99272.87
2018-12-03T16:43:44.718Z,99280.05
2018-12-03T16:46:13.736Z,99289.89
2018-12-03T16:48:42.583Z,99300.30
2018-12-03T16:51:11.924Z,99315.37
2018-12-03T16:53:40.905Z,99336.42
2018-12-03T16:56:09.737Z,99348.04
2018-12-03T16:58:39.214Z,99329.27
2018-12-03T17:01:08.443Z,99301.83
2018-12-03T17:03:37.962Z,99299.08
2018-12-03T17:06:07.184Z,99299.68
2018-12-03T17:08:36.101Z,99310.11
2018-12-03T17:11:04.987Z,99303.52
2018-12-03T17:13:34.379Z,99292.87
2018-12-03T17:16:05.115Z,99289.27
2018-12-03T17:18:34.007Z,99297.42
2018-12-03T17:21:09.357Z,99297.91
2018-12-03T17:23:51.177Z,99303.29
2018-12-03T17:26:20.823Z,99296.59
2018-12-03T17:28:49.786Z,99299.44
2018-12-03T17:31:19.198Z,99289.04
2018-12-03T17:33:48.494Z,99276.46
2018-12-03T17:36:17.703Z,99278.16
2018-12-03T17:38:46.588Z,99267.63
2018-12-03T17:41:15.821Z,99284.02
2018-12-03T17:43:44.733Z,99301.25
2018-12-03T17:46:13.622Z,99307.23
2018-12-03T17:48:42.994Z,99319.69
2018-12-03T17:51:12.189Z,99317.39
2018-12-03T17:53:41.614Z,99305.80
2018-12-03T17:56:11.324Z,99308.31
2018-12-03T17:58:40.806Z,99318.59
2018-12-03T18:01:10.132Z,99316.80
2018-12-03T18:06:18.708Z,99331.75
2018-12-03T18:08:48.025Z,99316.67
2018-12-03T18:11:17.870Z,99320.86
2018-12-03T18:13:47.320Z,99321.45
2018-12-03T18:16:17.002Z,99314.75
2018-12-03T18:18:47.504Z,99327.57
2018-12-03T18:21:17.149Z,99340.23
2018-12-03T18:23:46.586Z,99341.77
2018-12-03T18:26:32.627Z,99347.04
2018-12-03T18:29:02.127Z,99346.60
2018-12-03T18:31:31.622Z,99358.20
2018-12-03T18:34:03.780Z,99358.07
2018-12-03T18:36:33.336Z,99363.21
2018-12-03T18:39:02.983Z,99364.75
2018-12-03T18:41:32.941Z,99369.37
2018-12-03T18:44:03.196Z,99370.44
2018-12-03T18:46:32.706Z,99371.70
2018-12-03T18:49:07.276Z,99372.23
2018-12-03T18:51:36.810Z,99364.96
2018-12-03T18:54:06.347Z,99368.41
2018-12-03T18:56:35.883Z,99371.07
2018-12-03T18:59:07.036Z,99372.60
2018-12-03T19:01:36.948Z,99370.06
2018-12-03T19:04:07.200Z,99375.70
2018-12-03T19:06:36.782Z,99367.22
2018-12-03T19:09:09.167Z,99377.83
2018-12-03T19:11:38.689Z,99381.44
2018-12-03T19:14:09.805Z,99382.97
2018-12-03T19:16:40.064Z,99394.13
2018-12-03T19:19:09.593Z,99400.83
2018-12-03T19:21:39.365Z,99400.58
2018-12-03T19:24:09.287Z,99408.34
2018-12-03T19:26:38.824Z,99413.02
2018-12-03T19:29:08.526Z,99426.81
2018-12-03T19:31:39.478Z,99430.55
2018-12-03T19:34:08.942Z,99437.05
2018-12-03T19:36:38.640Z,99442.32
2018-12-03T19:39:08.871Z,99450.59
2018-12-03T19:41:38.578Z,99461.46
2018-12-03T19:44:08.156Z,99462.28
2018-12-03T19:46:39.457Z,99464.00
2018-12-03T19:49:08.960Z,99479.20
2018-12-03T19:51:38.529Z,99475.59
2018-12-03T19:54:08.607Z,99487.26
2018-12-03T19:56:38.207Z,99495.08
2018-12-03T19:59:07.864Z,99502.75
2018-12-03T20:01:37.971Z,99498.20
2018-12-03T20:04:07.079Z,99493.08
2018-12-03T20:06:36.668Z,99509.05
2018-12-03T20:09:07.183Z,99514.80
2018-12-03T20:11:36.660Z,99518.14
2018-12-03T20:14:07.722Z,99528.87
2018-12-03T20:16:37.290Z,99529.31
2018-12-03T20:19:06.827Z,99533.83
2018-12-03T20:21:36.708Z,99540.36
2018-12-03T20:24:09.758Z,99548.73
2018-12-03T20:26:45.096Z,99553.14
2018-12-03T20:29:55.124Z,99556.45
2018-12-03T20:33:04.779Z,99559.84
2018-12-03T20:35:42.849Z,99558.17
2018-12-03T20:38:24.536Z,99553.47
2018-12-03T20:41:15.790Z,99574.22
2018-12-03T20:43:46.672Z,99574.95
2018-12-03T20:46:32.841Z,99573.87
2018-12-03T20:49:14.920Z,99585.09
2018-12-03T20:51:45.205Z,99580.78
2018-12-03T20:54:14.784Z,99590.26
2018-12-03T20:56:44.399Z,99594.88
2018-12-03T20:59:14.279Z,99599.29
2018-12-03T21:01:46.077Z,99607.00
2018-12-03T21:04:17.747Z,99607.73
2018-12-03T21:06:47.291Z,99617.80
2018-12-03T21:09:16.766Z,99620.19
2018-12-03T21:11:46.720Z,99613.02
2018-12-03T21:14:20.079Z,99625.81
2018-12-03T21:16:47.855Z,99624.94
2018-12-03T21:19:18.775Z,99634.36
2018-12-03T21:21:48.329Z,99635.96
2018-12-03T21:24:17.989Z,99641.61
2018-12-03T21:26:47.911Z,99655.97
2018-12-03T21:29:17.302Z,99665.52
2018-12-03T21:31:46.825Z,99663.89
2018-12-03T21:34:16.683Z,99668.70
2018-12-03T21:36:46.059Z,99681.28
2018-12-03T21:39:15.446Z,99683.18
2018-12-03T21:41:45.276Z,99697.05
2018-12-03T21:44:14.653Z,99703.52
2018-12-03T21:46:43.885Z,99707.63
2018-12-03T21:49:13.583Z,99720.34
2018-12-03T21:51:42.373Z,99739.39
2018-12-03T21:54:11.462Z,99745.83
2018-12-03T21:56:41.034Z,99753.58
2018-12-03T21:59:09.820Z,99755.63
2018-12-03T22:01:38.612Z,99757.50
2018-12-03T22:04:07.732Z,99756.03
2018-12-03T22:06:36.548Z,99758.98
2018-12-03T22:09:07.036Z,99771.61
2018-12-03T22:11:36.291Z,99781.22
2018-12-03T22:14:05.786Z,99782.22
2018-12-03T22:16:34.600Z,99775.56
2018-12-03T22:19:03.901Z,99770.34
2018-12-03T22:21:32.735Z,99773.55
2018-12-03T22:24:03.273Z,99771.04
2018-12-03T22:26:32.350Z,99777.04
2018-12-03T22:29:01.316Z,99775.38
2018-12-03T22:31:30.075Z,99778.08
2018-12-03T22:33:59.290Z,99785.66
2018-12-03T22:36:28.165Z,99788.45
2018-12-03T22:38:57.527Z,99790.42
2018-12-03T22:41:27.807Z,99791.36
2018-12-03T22:43:56.707Z,99791.16
2018-12-03T22:46:25.565Z,99802.64
2018-12-03T22:48:54.822Z,99806.95
2018-12-03T22:51:23.607Z,99806.20
2018-12-03T22:53:52.394Z,99810.91
2018-12-03T22:56:21.540Z,99816.42
2018-12-03T22:58:50.459Z,99823.58
2018-12-03T23:01:24.503Z,99819.92
2018-12-03T23:03:53.691Z,99818.29
2018-12-03T23:06:22.495Z,99820.48
2018-12-03T23:08:51.340Z,99822.09
2018-12-03T23:11:20.538Z,99824.63
2018-12-03T23:13:49.370Z,99833.17
2018-12-03T23:16:18.156Z,99836.38
2018-12-03T23:18:47.436Z,99840.37
2018-12-03T23:21:16.265Z,99835.90
2018-12-03T23:23:45.103Z,99826.64
2018-12-03T23:26:14.611Z,99834.23
2018-12-03T23:28:43.402Z,99849.00
2018-12-03T23:31:12.238Z,99845.50
2018-12-03T23:33:41.326Z,99847.00
2018-12-03T23:36:10.163Z,99848.75
2018-12-03T23:38:38.954Z,99851.77
2018-12-03T23:41:08.178Z,99859.09
2018-12-03T23:43:37.108Z,99852.09
2018-12-03T23:46:06.051Z,99859.98
2018-12-03T23:48:35.326Z,99857.36
2018-12-03T23:51:04.115Z,99868.23
2018-12-03T23:53:32.892Z,99869.04
2018-12-03T23:56:03.906Z,99870.87
2018-12-03T23:58:32.673Z,99870.13
